Positano Jet — IFTU — position and weather

sailwx.info

Track history (hours):
 
Tides and Currents Weather Stations Pressure Air Temp Water Temp Dewpoint Dewpoint Depression Visibility Wind Speed Wind Dir Waves Ship Positions

Positano Jet

Last reported at 2015-Aug-04 10:32 UTC. Time now 2015-Aug-04 11:43 UTC.
Position N 40°35' E 014°25'.

Length 23 m; draft 2 m.

Type: Ship. MMSI: 247160800.

Date/timePositionNaut miles runAvg speedWind from/ knotsBaromVisibWave heightAir tempDewpointWater temp
2015-Aug-04 10:32N 40°35' E 014°25'8 8.3
2015-Aug-04 09:33N 40°33' E 014°14'1211.7
2015-Aug-04 08:33N 40°37' E 014°29'2 1.0
2015-Aug-04 06:21N 40°36' E 014°32'7 0.6
2015-Aug-03 17:20N 40°35' E 014°22'4 5.3
2015-Aug-03 16:33N 40°34' E 014°17'4 1.2
2015-Aug-03 13:30N 40°35' E 014°22'4 4.2
2015-Aug-03 12:33N 40°34' E 014°17'10 6.8
2015-Aug-03 11:04N 40°38' E 014°29'5 8.6
2015-Aug-03 10:27N 40°34' E 014°24'7 7.9
2015-Aug-03 09:34N 40°33' E 014°14'1110.9
2015-Aug-03 08:32N 40°37' E 014°28'1 0.1
2015-Aug-02 17:33N 40°37' E 014°29'9 9.0
2015-Aug-02 16:33N 40°34' E 014°18'2 0.5
2015-Aug-02 13:30N 40°34' E 014°20'3 3.1
2015-Aug-02 12:33N 40°34' E 014°17'7 3.1
2015-Aug-02 10:28N 40°35' E 014°25'8 9.0
2015-Aug-02 09:33N 40°33' E 014°14'12 0.7
2015-Aug-01 17:33N 40°37' E 014°29'5 1.3
2015-Aug-01 13:32N 40°35' E 014°22'5 4.7
2015-Aug-01 12:33N 40°34' E 014°17'4 2.1
2015-Aug-01 10:24N 40°34' E 014°22'6 7.2
2015-Aug-01 09:33N 40°33' E 014°14'6 0.4
2015-Jul-31 17:19N 40°35' E 014°22'2 0.4
2015-Jul-31 13:26N 40°34' E 014°20'3 3.4
2015-Jul-31 12:34N 40°34' E 014°16'9 4.3
2015-Jul-31 10:31N 40°36' E 014°27'1010.7
2015-Jul-31 09:33N 40°33' E 014°14'1110.8
2015-Jul-31 08:34N 40°37' E 014°28'1 0.1
2015-Jul-30 17:33N 40°37' E 014°29'6 1.5
2015-Jul-30 13:30N 40°35' E 014°22'4 4.3
2015-Jul-30 12:33N 40°34' E 014°17'8 3.8
2015-Jul-30 10:32N 40°36' E 014°27'10 9.9
2015-Jul-30 09:33N 40°33' E 014°14'1110.9
2015-Jul-30 08:30N 40°37' E 014°29'1 0.6
2015-Jul-30 07:32N 40°37' E 014°29'0 0.0
2015-Jul-30 06:28N 40°37' E 014°29'0 0.0
2015-Jul-30 05:27N 40°37' E 014°29'0 0.0
2015-Jul-30 04:22N 40°37' E 014°29'0 0.0
2015-Jul-30 03:32N 40°37' E 014°29'0 0.0
2015-Jul-30 02:27N 40°37' E 014°29'0 0.0
2015-Jul-30 01:31N 40°37' E 014°29'0 0.0
2015-Jul-30 00:25N 40°37' E 014°29'0 0.0
2015-Jul-29 23:33N 40°37' E 014°29'0 0.0
2015-Jul-29 22:32N 40°37' E 014°29'0 0.0
2015-Jul-29 21:33N 40°37' E 014°29'0 0.0
2015-Jul-29 20:33N 40°37' E 014°29'0 0.0
2015-Jul-29 19:33N 40°37' E 014°29'0 0.0
2015-Jul-29 18:34N 40°37' E 014°29'0 0.1
2015-Jul-29 17:33N 40°37' E 014°29'9 9.2
2015-Jul-29 16:33N 40°34' E 014°18'1 0.2
2015-Jul-29 13:22N 40°34' E 014°19'0 0.4
2015-Jul-29 12:30N 40°34' E 014°18'7 3.8
2015-Jul-29 10:33N 40°36' E 014°27'1010.3
2015-Jul-29 09:33N 40°33' E 014°14'11 0.7
2015-Jul-28 17:32N 40°37' E 014°28'9 8.8
2015-Jul-28 16:33N 40°34' E 014°18'3 1.1
2015-Jul-28 13:31N 40°35' E 014°22'3 3.5
2015-Jul-28 12:33N 40°34' E 014°18'6 3.1
2015-Jul-28 10:28N 40°36' E 014°26'910.0
2015-Jul-28 09:33N 40°33' E 014°14'1211.3
2015-Jul-28 08:30N 40°38' E 014°29'5 5.1
2015-Jul-28 07:33N 40°42' E 014°27'2 1.6
2015-Jul-28 06:31N 40°43' E 014°29'0 0.0
2015-Jul-28 05:28N 40°43' E 014°29'1 0.1
2015-Jul-27 18:33N 40°42' E 014°28'6 5.7
2015-Jul-27 17:26N 40°36' E 014°26'6 7.2
2015-Jul-27 16:32N 40°34' E 014°18'9 9.6
2015-Jul-27 15:33N 40°37' E 014°29'9 4.2
2015-Jul-27 13:28N 40°34' E 014°19'2 1.6
2015-Jul-27 12:33N 40°34' E 014°17'9 4.4
2015-Jul-27 10:33N 40°36' E 014°28'1110.7
2015-Jul-27 09:33N 40°33' E 014°14'1111.0
2015-Jul-27 08:31N 40°37' E 014°29'0 0.0
2015-Jul-26 17:33N 40°37' E 014°29'9 8.8
2015-Jul-26 16:34N 40°34' E 014°18'2 0.7
2015-Jul-26 13:32N 40°34' E 014°21'3 3.1
2015-Jul-26 12:33N 40°34' E 014°17'8 4.2
2015-Jul-26 10:33N 40°36' E 014°28'1110.7
2015-Jul-26 09:33N 40°33' E 014°14'1110.5
2015-Jul-26 08:33N 40°37' E 014°28'1 0.1
2015-Jul-25 17:33N 40°37' E 014°29'8 8.5
2015-Jul-25 16:33N 40°34' E 014°19'9 8.6
2015-Jul-25 15:32N 40°37' E 014°29'0 0.0
2015-Jul-25 14:19N 40°37' E 014°29'6 7.5
2015-Jul-25 13:32N 40°35' E 014°22'0 0.2
2015-Jul-25 12:25N 40°35' E 014°22'  
Track history (hours):
 
Tides and Currents Weather Stations Pressure Air Temp Water Temp Dewpoint Dewpoint Depression Visibility Wind Speed Wind Dir Waves Ship Positions

Positano Jet

Last reported at 2015-Aug-04 10:32 UTC. Time now 2015-Aug-04 11:43 UTC.
Position N 40°35' E 014°25'.

Length 23 m; draft 2 m.

Type: Ship. MMSI: 247160800.

Date/timePositionNaut miles runAvg speedWind from/ knotsBaromVisibWave heightAir tempDewpointWater temp
2015-Aug-04 10:32N 40°35' E 014°25'8 8.3
2015-Aug-04 09:33N 40°33' E 014°14'1211.7
2015-Aug-04 08:33N 40°37' E 014°29'2 1.0
2015-Aug-04 06:21N 40°36' E 014°32'7 0.6
2015-Aug-03 17:20N 40°35' E 014°22'4 5.3
2015-Aug-03 16:33N 40°34' E 014°17'4 1.2
2015-Aug-03 13:30N 40°35' E 014°22'4 4.2
2015-Aug-03 12:33N 40°34' E 014°17'10 6.8
2015-Aug-03 11:04N 40°38' E 014°29'5 8.6
2015-Aug-03 10:27N 40°34' E 014°24'7 7.9
2015-Aug-03 09:34N 40°33' E 014°14'1110.9
2015-Aug-03 08:32N 40°37' E 014°28'1 0.1
2015-Aug-02 17:33N 40°37' E 014°29'9 9.0
2015-Aug-02 16:33N 40°34' E 014°18'2 0.5
2015-Aug-02 13:30N 40°34' E 014°20'3 3.1
2015-Aug-02 12:33N 40°34' E 014°17'7 3.1
2015-Aug-02 10:28N 40°35' E 014°25'8 9.0
2015-Aug-02 09:33N 40°33' E 014°14'12 0.7
2015-Aug-01 17:33N 40°37' E 014°29'5 1.3
2015-Aug-01 13:32N 40°35' E 014°22'5 4.7
2015-Aug-01 12:33N 40°34' E 014°17'4 2.1
2015-Aug-01 10:24N 40°34' E 014°22'6 7.2
2015-Aug-01 09:33N 40°33' E 014°14'6 0.4
2015-Jul-31 17:19N 40°35' E 014°22'2 0.4
2015-Jul-31 13:26N 40°34' E 014°20'3 3.4
2015-Jul-31 12:34N 40°34' E 014°16'9 4.3
2015-Jul-31 10:31N 40°36' E 014°27'1010.7
2015-Jul-31 09:33N 40°33' E 014°14'1110.8
2015-Jul-31 08:34N 40°37' E 014°28'1 0.1
2015-Jul-30 17:33N 40°37' E 014°29'6 1.5
2015-Jul-30 13:30N 40°35' E 014°22'4 4.3
2015-Jul-30 12:33N 40°34' E 014°17'8 3.8
2015-Jul-30 10:32N 40°36' E 014°27'10 9.9
2015-Jul-30 09:33N 40°33' E 014°14'1110.9
2015-Jul-30 08:30N 40°37' E 014°29'1 0.6
2015-Jul-30 07:32N 40°37' E 014°29'0 0.0
2015-Jul-30 06:28N 40°37' E 014°29'0 0.0
2015-Jul-30 05:27N 40°37' E 014°29'0 0.0
2015-Jul-30 04:22N 40°37' E 014°29'0 0.0
2015-Jul-30 03:32N 40°37' E 014°29'0 0.0
2015-Jul-30 02:27N 40°37' E 014°29'0 0.0
2015-Jul-30 01:31N 40°37' E 014°29'0 0.0
2015-Jul-30 00:25N 40°37' E 014°29'0 0.0
2015-Jul-29 23:33N 40°37' E 014°29'0 0.0
2015-Jul-29 22:32N 40°37' E 014°29'0 0.0
2015-Jul-29 21:33N 40°37' E 014°29'0 0.0
2015-Jul-29 20:33N 40°37' E 014°29'0 0.0
2015-Jul-29 19:33N 40°37' E 014°29'0 0.0
2015-Jul-29 18:34N 40°37' E 014°29'0 0.1
2015-Jul-29 17:33N 40°37' E 014°29'9 9.2
2015-Jul-29 16:33N 40°34' E 014°18'1 0.2
2015-Jul-29 13:22N 40°34' E 014°19'0 0.4
2015-Jul-29 12:30N 40°34' E 014°18'7 3.8
2015-Jul-29 10:33N 40°36' E 014°27'1010.3
2015-Jul-29 09:33N 40°33' E 014°14'11 0.7
2015-Jul-28 17:32N 40°37' E 014°28'9 8.8
2015-Jul-28 16:33N 40°34' E 014°18'3 1.1
2015-Jul-28 13:31N 40°35' E 014°22'3 3.5
2015-Jul-28 12:33N 40°34' E 014°18'6 3.1
2015-Jul-28 10:28N 40°36' E 014°26'910.0
2015-Jul-28 09:33N 40°33' E 014°14'1211.3
2015-Jul-28 08:30N 40°38' E 014°29'5 5.1
2015-Jul-28 07:33N 40°42' E 014°27'2 1.6
2015-Jul-28 06:31N 40°43' E 014°29'0 0.0
2015-Jul-28 05:28N 40°43' E 014°29'1 0.1
2015-Jul-27 18:33N 40°42' E 014°28'6 5.7
2015-Jul-27 17:26N 40°36' E 014°26'6 7.2
2015-Jul-27 16:32N 40°34' E 014°18'9 9.6
2015-Jul-27 15:33N 40°37' E 014°29'9 4.2
2015-Jul-27 13:28N 40°34' E 014°19'2 1.6
2015-Jul-27 12:33N 40°34' E 014°17'9 4.4
2015-Jul-27 10:33N 40°36' E 014°28'1110.7
2015-Jul-27 09:33N 40°33' E 014°14'1111.0
2015-Jul-27 08:31N 40°37' E 014°29'0 0.0
2015-Jul-26 17:33N 40°37' E 014°29'9 8.8
2015-Jul-26 16:34N 40°34' E 014°18'2 0.7
2015-Jul-26 13:32N 40°34' E 014°21'3 3.1
2015-Jul-26 12:33N 40°34' E 014°17'8 4.2
2015-Jul-26 10:33N 40°36' E 014°28'1110.7
2015-Jul-26 09:33N 40°33' E 014°14'1110.5
2015-Jul-26 08:33N 40°37' E 014°28'1 0.1
2015-Jul-25 17:33N 40°37' E 014°29'8 8.5
2015-Jul-25 16:33N 40°34' E 014°19'9 8.6
2015-Jul-25 15:32N 40°37' E 014°29'0 0.0
2015-Jul-25 14:19N 40°37' E 014°29'6 7.5
2015-Jul-25 13:32N 40°35' E 014°22'0 0.2
2015-Jul-25 12:25N 40°35' E 014°22'  

Dump ship's entire track history